If you wish to contribute or participate in the discussions about articles you are invited to join SKYbrary as a registered user

 Actions

Clermont-Ferrand Auvergne Airport

From SKYbrary Wiki

LFLC
Airport
ICAO: LFLC – IATA: CFE
Summary
Name Clermont-Ferrand Auvergne Airport
Region Europe
Territory France FR.gif
Location Aulnat, Auvergne
Serving Clermont-Ferrand
Elevation 332.232 m
1,090 ft
1,090 ft332.232 m
Type medium airport
Coordinates 45° 47' 11.98" N, 3° 10' 9.01" E
Runways
Designator Length Width Surface ROPS
8/26 3015 m9,891.732 ft
45 m147.638 ft
ASP yes/yes
08L/26R 0 m0 ft
0 m0 ft
UNK /


METAR
Observation LFLC 201730Z AUTO VRB02KT CAVOK 20/09 Q1025 NOSIG
Station Clermont-Ferrand
Date/Time 20 August 2019 17:30:00
Wind direction °
Wind speed 02 kts
Lowest cloud amount clouds and visibility OK
Temperature 20°C
Dew point 9°C
Humidity 49%
QNH 1025 hPa
Weather condition n/a

Clermont-Ferrand Auvergne Airport is an airport serving the French city of Clermont-Ferrand. It is located 6.7 km3.618 nm
6,700 m
21,981.627 ft
east of the city, in Aulnat.

Climatology

Temperate Oceanic climate (Köppen climate classification Cfb).

Maps

Terrain

Loading map...

Airport Layout

Loading map...


Accidents & Serious Incidents at or in vicinity of LFLC

None on SKYbrary